createdAt,value
2016-09-14T00:00:32.968Z,0
2016-09-14T00:01:15.171Z,0
2016-09-14T00:01:55.645Z,0
2016-09-14T00:02:36.229Z,0
2016-09-14T00:03:16.822Z,0
2016-09-14T00:03:57.401Z,0
2016-09-14T00:04:38.893Z,0
2016-09-14T00:05:19.453Z,0
2016-09-14T00:06:03.588Z,0
2016-09-14T00:06:46.949Z,0
2016-09-14T00:07:27.484Z,0
2016-09-14T00:08:07.968Z,0
2016-09-14T00:08:48.506Z,0
2016-09-14T00:09:29.059Z,0
2016-09-14T00:10:09.688Z,0
2016-09-14T00:10:50.267Z,0
2016-09-14T00:11:30.872Z,0
2016-09-14T00:12:11.460Z,0
2016-09-14T00:12:52.039Z,0
2016-09-14T00:13:34.629Z,0
2016-09-14T00:14:15.173Z,0
2016-09-14T00:14:57.470Z,0
2016-09-14T00:15:38.085Z,0
2016-09-14T00:16:20.308Z,0
2016-09-14T00:17:00.895Z,0
2016-09-14T00:17:41.526Z,0
2016-09-14T00:18:22.085Z,0
2016-09-14T00:19:03.571Z,0
2016-09-14T00:19:45.835Z,0
2016-09-14T00:20:26.418Z,0
2016-09-14T00:21:06.926Z,0
2016-09-14T00:21:47.615Z,0
2016-09-14T00:22:30.281Z,0
2016-09-14T00:23:10.823Z,0
2016-09-14T00:23:51.402Z,0
2016-09-14T00:24:31.937Z,0
2016-09-14T00:25:12.495Z,0
2016-09-14T00:25:53.031Z,0
2016-09-14T00:26:33.601Z,0
2016-09-14T00:27:14.200Z,0
2016-09-14T00:27:54.689Z,0
2016-09-14T00:28:35.226Z,0
2016-09-14T00:29:15.741Z,0
2016-09-14T00:29:56.254Z,0
2016-09-14T00:30:36.792Z,0
2016-09-14T00:31:17.437Z,0
2016-09-14T00:31:59.567Z,0
2016-09-14T00:32:40.076Z,0
2016-09-14T00:33:20.607Z,0
2016-09-14T00:34:02.119Z,0
2016-09-14T00:34:42.608Z,0
2016-09-14T00:35:23.100Z,0
2016-09-14T00:36:03.651Z,0
2016-09-14T00:36:47.156Z,0
2016-09-14T00:37:29.442Z,0
2016-09-14T00:38:09.996Z,0
2016-09-14T00:38:50.511Z,0
2016-09-14T00:39:31.122Z,0
2016-09-14T00:40:11.638Z,0
2016-09-14T00:40:53.961Z,0
2016-09-14T00:41:36.193Z,0
2016-09-14T00:42:16.821Z,0
2016-09-14T00:42:57.371Z,0
2016-09-14T00:43:37.934Z,0
2016-09-14T00:44:18.498Z,0
2016-09-14T00:44:59.031Z,0
2016-09-14T00:45:39.591Z,0
2016-09-14T00:46:20.182Z,0
2016-09-14T00:47:00.736Z,0
2016-09-14T00:47:42.872Z,0
2016-09-14T00:48:23.534Z,0
2016-09-14T00:49:03.993Z,0
2016-09-14T00:49:44.526Z,0
2016-09-14T00:50:25.046Z,0
2016-09-14T00:51:05.538Z,0
2016-09-14T00:51:48.128Z,0
2016-09-14T00:52:28.642Z,0
2016-09-14T00:53:11.081Z,0
2016-09-14T00:53:51.579Z,0
2016-09-14T00:54:32.120Z,0
2016-09-14T00:55:12.693Z,0
2016-09-14T00:55:53.243Z,0
2016-09-14T00:56:33.792Z,0
2016-09-14T00:57:14.347Z,0
2016-09-14T00:57:56.966Z,0
2016-09-14T00:58:37.459Z,0
2016-09-14T00:59:17.985Z,0
2016-09-14T00:59:58.501Z,0
2016-09-14T01:00:39.157Z,0
2016-09-14T01:01:19.666Z,0
2016-09-14T01:02:00.189Z,0
2016-09-14T01:02:40.712Z,0
2016-09-14T01:03:21.276Z,0
2016-09-14T01:04:01.892Z,0
2016-09-14T01:04:42.528Z,0
2016-09-14T01:05:23.075Z,0
2016-09-14T01:06:06.897Z,0
2016-09-14T01:06:50.125Z,0
2016-09-14T01:07:30.710Z,0
2016-09-14T01:08:11.225Z,0
2016-09-14T01:08:51.810Z,0
2016-09-14T01:09:32.417Z,0
2016-09-14T01:10:12.902Z,0
2016-09-14T01:10:53.458Z,0
2016-09-14T01:11:34.020Z,0
2016-09-14T01:12:14.551Z,0
2016-09-14T01:12:55.215Z,0
2016-09-14T01:13:35.816Z,0
2016-09-14T01:14:16.350Z,0
2016-09-14T01:14:56.866Z,0
2016-09-14T01:15:37.436Z,0
2016-09-14T01:16:17.967Z,0
2016-09-14T01:16:58.570Z,0
2016-09-14T01:17:39.102Z,0
2016-09-14T01:18:19.634Z,0
2016-09-14T01:19:00.302Z,0
2016-09-14T01:19:40.875Z,0
2016-09-14T01:20:21.473Z,0
2016-09-14T01:21:02.068Z,0
2016-09-14T01:21:42.589Z,0
2016-09-14T01:22:23.243Z,0
2016-09-14T01:23:03.785Z,0
2016-09-14T01:23:44.345Z,0
2016-09-14T01:24:24.947Z,0
2016-09-14T01:25:05.471Z,0
2016-09-14T01:25:46.006Z,0
2016-09-14T01:26:26.524Z,0
2016-09-14T01:27:07.047Z,0
2016-09-14T01:27:47.534Z,0
2016-09-14T01:28:28.123Z,0
2016-09-14T01:29:08.693Z,0
2016-09-14T01:29:49.322Z,0
2016-09-14T01:30:29.839Z,0
2016-09-14T01:31:10.426Z,0
2016-09-14T01:31:51.088Z,0
2016-09-14T01:32:31.614Z,0
2016-09-14T01:33:12.126Z,0
2016-09-14T01:33:52.717Z,0
2016-09-14T01:34:34.964Z,0
2016-09-14T01:35:15.534Z,0
2016-09-14T01:35:56.193Z,0
2016-09-14T01:36:36.752Z,0
2016-09-14T01:37:17.329Z,0
2016-09-14T01:37:59.462Z,0
2016-09-14T01:38:40.055Z,0
2016-09-14T01:39:20.586Z,0
2016-09-14T01:40:01.139Z,0
2016-09-14T01:40:41.726Z,0
2016-09-14T01:41:22.439Z,0
2016-09-14T01:42:03.002Z,0
2016-09-14T01:42:43.561Z,0
2016-09-14T01:43:25.776Z,0
2016-09-14T01:44:07.880Z,0
2016-09-14T01:44:48.445Z,0
2016-09-14T01:45:29.043Z,0
2016-09-14T01:46:11.417Z,0
2016-09-14T01:46:51.938Z,0
2016-09-14T01:47:32.499Z,0
2016-09-14T01:48:14.803Z,0
2016-09-14T01:48:55.427Z,0
2016-09-14T01:49:36.025Z,0
2016-09-14T01:50:16.558Z,0
2016-09-14T01:50:57.141Z,0
2016-09-14T01:51:37.809Z,0
2016-09-14T01:52:18.507Z,0
2016-09-14T01:52:59.083Z,0
2016-09-14T01:53:39.791Z,0
2016-09-14T01:54:20.284Z,0
2016-09-14T01:55:00.841Z,0
2016-09-14T01:55:41.426Z,0
2016-09-14T01:56:23.899Z,0
2016-09-14T01:57:04.463Z,0
2016-09-14T01:57:45.022Z,0
2016-09-14T01:58:25.529Z,0
2016-09-14T01:59:06.122Z,0
2016-09-14T01:59:46.756Z,0
2016-09-14T02:00:27.257Z,0
2016-09-14T02:01:07.904Z,0
2016-09-14T02:01:48.490Z,0
2016-09-14T02:02:29.089Z,0
2016-09-14T02:03:09.650Z,0
2016-09-14T02:03:50.363Z,0
2016-09-14T02:04:30.927Z,0
2016-09-14T02:05:11.466Z,0
2016-09-14T02:05:54.769Z,0
2016-09-14T02:06:35.343Z,0
2016-09-14T02:07:15.878Z,0
2016-09-14T02:07:56.451Z,0
2016-09-14T02:08:37.168Z,0
2016-09-14T02:09:19.510Z,0
2016-09-14T02:10:02.828Z,0
2016-09-14T02:10:43.541Z,0
2016-09-14T02:11:24.048Z,0
2016-09-14T02:12:04.608Z,0
2016-09-14T02:12:45.157Z,0
2016-09-14T02:13:27.479Z,0
2016-09-14T02:14:08.003Z,0
2016-09-14T02:14:48.650Z,0
2016-09-14T02:15:29.172Z,0
2016-09-14T02:16:09.690Z,0
2016-09-14T02:16:50.231Z,0
2016-09-14T02:17:30.795Z,0
2016-09-14T02:18:11.353Z,0
2016-09-14T02:18:51.983Z,0
2016-09-14T02:19:32.538Z,0
2016-09-14T02:20:13.200Z,0
2016-09-14T02:20:53.776Z,0
2016-09-14T02:21:35.799Z,0
2016-09-14T02:22:16.378Z,0
2016-09-14T02:22:57.041Z,0
2016-09-14T02:23:39.436Z,0
2016-09-14T02:24:21.732Z,0
2016-09-14T02:25:02.374Z,0
2016-09-14T02:25:42.830Z,0
2016-09-14T02:26:23.375Z,0
2016-09-14T02:27:04.013Z,0
2016-09-14T02:27:44.497Z,0
2016-09-14T02:28:25.158Z,0
2016-09-14T02:29:05.666Z,0
2016-09-14T02:29:46.288Z,0
2016-09-14T02:30:28.630Z,0
2016-09-14T02:31:09.208Z,0
2016-09-14T02:31:49.800Z,0
2016-09-14T02:32:30.343Z,0
2016-09-14T02:33:10.875Z,0
2016-09-14T02:33:51.386Z,0
2016-09-14T02:34:31.988Z,0
2016-09-14T02:35:12.534Z,0
2016-09-14T02:35:53.060Z,0
2016-09-14T02:36:35.304Z,0
2016-09-14T02:37:15.899Z,0
2016-09-14T02:37:56.461Z,0
2016-09-14T02:38:37.052Z,0
2016-09-14T02:39:17.659Z,0
2016-09-14T02:39:58.325Z,0
2016-09-14T02:40:38.849Z,0
2016-09-14T02:41:19.487Z,0
2016-09-14T02:42:00.134Z,0
2016-09-14T02:42:40.658Z,0
2016-09-14T02:43:21.319Z,0
2016-09-14T02:44:01.808Z,0
2016-09-14T02:44:42.378Z,0
2016-09-14T02:45:22.893Z,0
2016-09-14T02:46:03.550Z,0
2016-09-14T02:46:44.094Z,0
2016-09-14T02:47:24.637Z,0
2016-09-14T02:48:05.127Z,0
2016-09-14T02:48:45.665Z,0
2016-09-14T02:49:26.337Z,0
2016-09-14T02:50:06.965Z,0
2016-09-14T02:50:47.547Z,0
2016-09-14T02:51:28.103Z,0
2016-09-14T02:52:08.751Z,0
2016-09-14T02:52:49.297Z,0
2016-09-14T02:53:29.840Z,0
2016-09-14T02:54:10.418Z,0
2016-09-14T02:54:50.930Z,0
2016-09-14T02:55:31.538Z,0
2016-09-14T02:56:12.058Z,0
2016-09-14T02:56:52.622Z,0
2016-09-14T02:57:33.150Z,0
2016-09-14T02:58:15.413Z,0
2016-09-14T02:58:56.054Z,0
2016-09-14T02:59:36.549Z,0
2016-09-14T03:00:17.054Z,0
2016-09-14T03:00:57.636Z,0
2016-09-14T03:01:38.194Z,0
2016-09-14T03:02:18.735Z,0
2016-09-14T03:02:59.279Z,0
2016-09-14T03:03:39.794Z,0
2016-09-14T03:04:20.459Z,0
2016-09-14T03:05:03.903Z,0
2016-09-14T03:05:44.610Z,0
2016-09-14T03:06:25.169Z,0
2016-09-14T03:07:05.830Z,0
2016-09-14T03:07:46.303Z,0
2016-09-14T03:08:26.988Z,0
2016-09-14T03:09:07.542Z,0
2016-09-14T03:09:48.190Z,0
2016-09-14T03:10:28.764Z,0
2016-09-14T03:11:09.264Z,0
2016-09-14T03:11:51.584Z,0
2016-09-14T03:12:32.039Z,0
2016-09-14T03:13:12.621Z,0
2016-09-14T03:13:53.233Z,0
2016-09-14T03:14:33.775Z,0
2016-09-14T03:15:14.316Z,0
2016-09-14T03:15:54.866Z,0
2016-09-14T03:16:35.447Z,0
2016-09-14T03:17:15.994Z,0
2016-09-14T03:19:32.230Z,0
2016-09-14T03:20:12.736Z,0
2016-09-14T03:20:53.281Z,0
2016-09-14T03:21:33.823Z,0
2016-09-14T03:22:14.364Z,0
2016-09-14T03:22:54.878Z,0
2016-09-14T03:23:35.428Z,0
2016-09-14T03:24:15.915Z,0
2016-09-14T03:24:56.570Z,0
2016-09-14T03:25:37.069Z,0
2016-09-14T03:26:17.569Z,0
2016-09-14T03:26:58.151Z,0
2016-09-14T03:27:38.653Z,0
2016-09-14T03:28:19.139Z,0
2016-09-14T03:28:59.652Z,0
2016-09-14T03:29:40.202Z,0
2016-09-14T03:30:20.764Z,0
2016-09-14T03:31:01.301Z,0
2016-09-14T03:31:41.776Z,0
2016-09-14T03:32:22.266Z,0
2016-09-14T03:33:02.774Z,0
2016-09-14T03:33:43.286Z,0
2016-09-14T03:34:23.769Z,0
2016-09-14T03:35:04.305Z,0
2016-09-14T03:35:44.779Z,0
2016-09-14T03:36:25.298Z,0
2016-09-14T03:37:05.858Z,0
2016-09-14T03:37:46.311Z,0
2016-09-14T03:38:26.881Z,0
2016-09-14T03:39:07.404Z,0
2016-09-14T03:39:47.875Z,0
2016-09-14T03:40:28.461Z,0
2016-09-14T03:41:08.978Z,0
2016-09-14T03:41:49.498Z,0
2016-09-14T03:42:30.007Z,0
2016-09-14T03:43:10.509Z,0
2016-09-14T03:43:51.032Z,0
2016-09-14T03:44:31.508Z,0
2016-09-14T03:45:12.102Z,0
2016-09-14T03:45:52.614Z,0
2016-09-14T03:46:33.145Z,0
2016-09-14T03:47:13.695Z,0
2016-09-14T03:47:54.247Z,0
2016-09-14T03:48:34.786Z,0
2016-09-14T03:49:15.321Z,0
2016-09-14T03:49:55.849Z,0
2016-09-14T03:50:36.388Z,0
2016-09-14T03:51:16.933Z,0
2016-09-14T03:51:57.478Z,0
2016-09-14T03:52:38.022Z,0
2016-09-14T03:53:18.477Z,0
2016-09-14T03:53:59.387Z,0
2016-09-14T03:54:40.287Z,0
2016-09-14T03:55:20.932Z,0
2016-09-14T03:56:01.517Z,0
2016-09-14T03:56:42.035Z,0
2016-09-14T03:57:22.602Z,0
2016-09-14T03:58:03.111Z,0
2016-09-14T03:58:43.662Z,0
2016-09-14T03:59:24.192Z,0
2016-09-14T04:00:04.723Z,0
2016-09-14T04:00:45.234Z,0
2016-09-14T04:01:25.741Z,0
2016-09-14T04:02:06.271Z,0
2016-09-14T04:02:46.792Z,0
2016-09-14T04:03:27.424Z,0
2016-09-14T04:04:07.881Z,0
2016-09-14T04:04:48.400Z,0
2016-09-14T04:05:28.955Z,0
2016-09-14T04:06:09.478Z,0
2016-09-14T04:06:49.965Z,0
2016-09-14T04:07:30.476Z,0
2016-09-14T04:08:11.012Z,0
2016-09-14T04:08:51.599Z,0
2016-09-14T04:09:32.108Z,0
2016-09-14T04:10:12.641Z,0
2016-09-14T04:10:53.180Z,0
2016-09-14T04:11:33.718Z,0
2016-09-14T04:12:14.246Z,0
2016-09-14T04:12:54.789Z,0
2016-09-14T04:13:35.334Z,0
2016-09-14T04:14:15.956Z,0
2016-09-14T04:14:56.486Z,0
2016-09-14T04:15:37.045Z,0
2016-09-14T04:16:17.579Z,0
2016-09-14T04:16:58.218Z,0
2016-09-14T04:17:38.756Z,0
2016-09-14T04:18:19.329Z,0
2016-09-14T04:18:59.902Z,0
2016-09-14T04:19:40.443Z,0
2016-09-14T04:20:21.031Z,0
2016-09-14T04:21:01.550Z,0
2016-09-14T04:21:42.118Z,0
2016-09-14T04:22:22.659Z,0
2016-09-14T04:23:03.203Z,0
2016-09-14T04:23:43.731Z,0
2016-09-14T04:24:24.286Z,0
2016-09-14T04:25:04.771Z,0
2016-09-14T04:25:45.272Z,0
2016-09-14T04:26:25.782Z,0
2016-09-14T04:27:06.304Z,0
2016-09-14T04:27:46.840Z,0
2016-09-14T04:28:27.478Z,0
2016-09-14T04:29:07.989Z,0
2016-09-14T04:29:48.527Z,0
2016-09-14T04:30:29.070Z,0
2016-09-14T04:31:09.581Z,0
2016-09-14T04:31:50.122Z,0
2016-09-14T04:32:30.617Z,0
2016-09-14T04:33:11.152Z,0
2016-09-14T04:33:51.687Z,0
2016-09-14T04:34:32.191Z,0
2016-09-14T04:35:12.694Z,0
2016-09-14T04:35:53.238Z,4
2016-09-14T04:36:33.812Z,4
2016-09-14T04:37:14.340Z,4
2016-09-14T04:37:54.844Z,0
2016-09-14T04:38:35.354Z,0
2016-09-14T04:39:15.898Z,4
2016-09-14T04:39:56.410Z,4
2016-09-14T04:40:37.044Z,4
2016-09-14T04:41:17.567Z,4
2016-09-14T04:41:58.067Z,4
2016-09-14T04:42:38.601Z,4
2016-09-14T04:43:19.264Z,8
2016-09-14T04:43:59.843Z,8
2016-09-14T04:44:41.718Z,8
2016-09-14T04:45:22.020Z,12
2016-09-14T04:46:02.461Z,12
2016-09-14T04:46:43.483Z,12
2016-09-14T04:47:23.859Z,12
2016-09-14T04:48:04.576Z,16
2016-09-14T04:48:45.365Z,16
2016-09-14T04:49:26.108Z,20
2016-09-14T04:50:06.452Z,20
2016-09-14T04:50:47.009Z,24
2016-09-14T04:51:27.566Z,28
2016-09-14T04:52:08.104Z,28
2016-09-14T04:52:48.660Z,32
2016-09-14T04:53:29.202Z,36
2016-09-14T04:54:09.734Z,36
2016-09-14T04:54:50.282Z,40
2016-09-14T04:55:30.830Z,48
2016-09-14T04:56:11.361Z,52
2016-09-14T04:56:51.913Z,60
2016-09-14T04:57:33.123Z,60
2016-09-14T04:58:13.016Z,68
2016-09-14T04:58:53.577Z,72
2016-09-14T04:59:34.101Z,80
2016-09-14T05:00:14.692Z,88
2016-09-14T05:00:55.221Z,96
2016-09-14T05:01:35.767Z,104
2016-09-14T05:02:16.313Z,112
2016-09-14T05:02:56.852Z,116
2016-09-14T05:03:37.368Z,128
2016-09-14T05:04:17.926Z,136
2016-09-14T05:04:58.466Z,148
2016-09-14T05:05:39.020Z,156
2016-09-14T05:06:19.561Z,164
2016-09-14T05:07:00.108Z,176
2016-09-14T05:07:40.644Z,188
2016-09-14T05:08:21.188Z,196
2016-09-14T05:09:01.732Z,208
2016-09-14T05:09:42.265Z,220
2016-09-14T05:10:22.815Z,232
2016-09-14T05:11:03.358Z,244
2016-09-14T05:11:43.896Z,260
2016-09-14T05:12:24.427Z,272
2016-09-14T05:13:04.972Z,284
2016-09-14T05:13:45.523Z,300
2016-09-14T05:14:26.074Z,312
2016-09-14T05:15:06.608Z,328
2016-09-14T05:15:47.136Z,340
2016-09-14T05:16:27.682Z,356
2016-09-14T05:17:08.226Z,368
2016-09-14T05:17:48.770Z,388
2016-09-14T05:18:29.319Z,404
2016-09-14T05:19:09.872Z,416
2016-09-14T05:19:50.421Z,432
2016-09-14T05:20:30.969Z,452
2016-09-14T05:21:11.518Z,468
2016-09-14T05:21:52.084Z,484
2016-09-14T05:22:32.616Z,500
2016-09-14T05:23:13.158Z,520
2016-09-14T05:23:53.688Z,536
2016-09-14T05:24:34.233Z,552
2016-09-14T05:25:14.771Z,572
2016-09-14T05:25:55.316Z,588
2016-09-14T05:26:35.880Z,604
2016-09-14T05:27:16.436Z,620
2016-09-14T05:27:56.981Z,640
2016-09-14T05:28:37.517Z,660
2016-09-14T05:29:18.057Z,676
2016-09-14T05:29:58.618Z,696
2016-09-14T05:30:39.168Z,712
2016-09-14T05:31:19.704Z,728
2016-09-14T05:32:00.265Z,744
2016-09-14T05:32:40.815Z,764
2016-09-14T05:33:21.356Z,780
2016-09-14T05:34:01.890Z,800
2016-09-14T05:34:42.452Z,820
2016-09-14T05:35:22.991Z,836
2016-09-14T05:36:03.547Z,856
2016-09-14T05:36:44.085Z,872
2016-09-14T05:37:24.627Z,888
2016-09-14T05:38:05.183Z,908
2016-09-14T05:38:45.735Z,924
2016-09-14T05:39:26.273Z,940
2016-09-14T05:40:06.810Z,964
2016-09-14T05:40:47.355Z,980
2016-09-14T05:41:27.894Z,1000
2016-09-14T05:42:08.447Z,1016
2016-09-14T05:42:48.992Z,1032
2016-09-14T05:43:29.552Z,1052
2016-09-14T05:44:10.095Z,1068
2016-09-14T05:44:50.625Z,1088
2016-09-14T05:45:31.169Z,1104
2016-09-14T05:46:11.702Z,1120
2016-09-14T05:46:52.250Z,1132
2016-09-14T05:47:32.786Z,1152
2016-09-14T05:48:13.325Z,1168
2016-09-14T05:48:53.872Z,1184
2016-09-14T05:49:34.424Z,1200
2016-09-14T05:50:14.973Z,1220
2016-09-14T05:50:55.527Z,1232
2016-09-14T05:51:36.076Z,1248
2016-09-14T05:52:16.631Z,1264
2016-09-14T05:52:57.177Z,1284
2016-09-14T05:53:37.719Z,1296
2016-09-14T05:54:18.267Z,1312
2016-09-14T05:54:58.815Z,1328
2016-09-14T05:55:39.346Z,1344
2016-09-14T05:56:19.895Z,1360
2016-09-14T05:57:00.434Z,1376
2016-09-14T05:57:40.968Z,1392
2016-09-14T05:58:21.516Z,1408
2016-09-14T05:59:02.064Z,1424
2016-09-14T05:59:42.615Z,1436
2016-09-14T06:00:23.161Z,1456
2016-09-14T06:01:03.716Z,1472
2016-09-14T06:01:44.263Z,1488
2016-09-14T06:02:24.816Z,1500
2016-09-14T06:03:05.362Z,1516
2016-09-14T06:03:45.893Z,1532
2016-09-14T06:04:26.410Z,1544
2016-09-14T06:05:06.942Z,1560
2016-09-14T06:05:47.480Z,1576
2016-09-14T06:06:28.035Z,1588
2016-09-14T06:07:08.584Z,1604
2016-09-14T06:07:49.126Z,1620
2016-09-14T06:08:29.670Z,1636
2016-09-14T06:09:10.223Z,1652
2016-09-14T06:09:50.775Z,1664
2016-09-14T06:10:31.914Z,1676
2016-09-14T06:11:12.468Z,1692
2016-09-14T06:11:53.017Z,1708
2016-09-14T06:12:33.553Z,1720
2016-09-14T06:13:14.102Z,1732
2016-09-14T06:13:54.646Z,1752
2016-09-14T06:14:35.197Z,1760
2016-09-14T06:15:15.750Z,1780
2016-09-14T06:15:56.262Z,1792
2016-09-14T06:16:36.805Z,1808
2016-09-14T06:17:17.353Z,1824
2016-09-14T06:17:57.899Z,1836
2016-09-14T06:18:38.454Z,1852
2016-09-14T06:19:19.003Z,1872
2016-09-14T06:19:59.547Z,1888
2016-09-14T06:20:40.096Z,1900
2016-09-14T06:21:20.647Z,1920
2016-09-14T06:22:01.198Z,1936
2016-09-14T06:22:41.750Z,1952
2016-09-14T06:23:22.318Z,1968
2016-09-14T06:24:02.864Z,1984
2016-09-14T06:24:43.411Z,1996
2016-09-14T06:25:23.957Z,2012
2016-09-14T06:26:04.505Z,2028
2016-09-14T06:26:45.054Z,2044
2016-09-14T06:27:25.639Z,2056
2016-09-14T06:28:06.183Z,2076
2016-09-14T06:28:46.798Z,2092
2016-09-14T06:29:27.338Z,2104
2016-09-14T06:30:07.911Z,2120
2016-09-14T06:30:48.479Z,2136
2016-09-14T06:31:29.012Z,2148
2016-09-14T06:32:09.561Z,2160
2016-09-14T06:32:50.127Z,2176
2016-09-14T06:33:30.676Z,2188
2016-09-14T06:34:11.222Z,2200
2016-09-14T06:34:51.772Z,2212
2016-09-14T06:35:32.323Z,2224
2016-09-14T06:36:12.872Z,2236
2016-09-14T06:36:53.422Z,2248
2016-09-14T06:37:33.970Z,2260
2016-09-14T06:38:14.524Z,2272
2016-09-14T06:38:55.061Z,2288
2016-09-14T06:39:35.608Z,2304
2016-09-14T06:40:16.151Z,2320
2016-09-14T06:40:56.702Z,2328
2016-09-14T06:41:37.254Z,2340
2016-09-14T06:42:17.793Z,2356
2016-09-14T06:42:58.352Z,2372
2016-09-14T06:43:38.900Z,2388
2016-09-14T06:44:19.449Z,2400
2016-09-14T06:45:00.004Z,2416
2016-09-14T06:45:40.561Z,2428
2016-09-14T06:46:21.106Z,2444
2016-09-14T06:47:01.658Z,2460
2016-09-14T06:47:42.195Z,2476
2016-09-14T06:48:22.743Z,2492
2016-09-14T06:49:03.289Z,2508
2016-09-14T06:49:43.842Z,2524
2016-09-14T06:50:24.391Z,2540
2016-09-14T06:51:04.934Z,2560
2016-09-14T06:51:45.478Z,2576
2016-09-14T06:52:26.027Z,2592
2016-09-14T06:53:06.570Z,2608
2016-09-14T06:53:47.113Z,2620
2016-09-14T06:54:27.660Z,2640
2016-09-14T06:55:08.209Z,2656
2016-09-14T06:55:48.754Z,2672
2016-09-14T06:56:29.305Z,2688
2016-09-14T06:57:09.853Z,2704
2016-09-14T06:57:50.394Z,2720
2016-09-14T06:58:30.945Z,2732
2016-09-14T06:59:11.496Z,2748
2016-09-14T06:59:52.045Z,2764
2016-09-14T07:00:32.595Z,2772
2016-09-14T07:01:13.155Z,2784
2016-09-14T07:01:53.706Z,2800
2016-09-14T07:02:34.253Z,2812
2016-09-14T07:03:14.801Z,2824
2016-09-14T07:03:55.352Z,2840
2016-09-14T07:04:35.901Z,2852
2016-09-14T07:05:16.451Z,2864
2016-09-14T07:05:56.998Z,2880
2016-09-14T07:06:37.556Z,2892
2016-09-14T07:07:18.103Z,2904
2016-09-14T07:07:58.656Z,2916
2016-09-14T07:08:39.204Z,2932
2016-09-14T07:09:19.758Z,2940
2016-09-14T07:10:00.308Z,2956
2016-09-14T07:10:40.862Z,2968
2016-09-14T07:11:21.411Z,2984
2016-09-14T07:12:01.960Z,3000
2016-09-14T07:12:42.514Z,3012
2016-09-14T07:13:23.064Z,3028
2016-09-14T07:14:03.615Z,3048
2016-09-14T07:14:44.170Z,3064
2016-09-14T07:15:24.718Z,3088
2016-09-14T07:16:05.269Z,3104
2016-09-14T07:16:45.820Z,3128
2016-09-14T07:17:26.369Z,3144
2016-09-14T07:18:06.920Z,3168
2016-09-14T07:18:47.469Z,3188
2016-09-14T07:19:28.023Z,3204
2016-09-14T07:20:08.571Z,3220
2016-09-14T07:20:49.129Z,3240
2016-09-14T07:21:29.679Z,3252
2016-09-14T07:22:10.228Z,3260
2016-09-14T07:22:50.779Z,3276
2016-09-14T07:23:31.324Z,3288
2016-09-14T07:24:11.863Z,3308
2016-09-14T07:24:52.428Z,3328
2016-09-14T07:25:32.983Z,3340
2016-09-14T07:26:13.532Z,3352
2016-09-14T07:26:54.081Z,3372
2016-09-14T07:27:34.627Z,3388
2016-09-14T07:28:15.180Z,3408
2016-09-14T07:28:55.744Z,3432
2016-09-14T07:29:36.284Z,3452
2016-09-14T07:30:16.835Z,3472
2016-09-14T07:30:57.385Z,3496
2016-09-14T07:31:37.933Z,3512
2016-09-14T07:32:18.483Z,3532
2016-09-14T07:32:59.035Z,3548
2016-09-14T07:33:39.587Z,3568
2016-09-14T07:34:20.136Z,3580
2016-09-14T07:35:00.688Z,3596
2016-09-14T07:35:41.248Z,3616
2016-09-14T07:36:21.797Z,3628
2016-09-14T07:37:02.343Z,3644
2016-09-14T07:37:42.896Z,3660
2016-09-14T07:38:23.447Z,3672
2016-09-14T07:39:03.997Z,3696
2016-09-14T07:39:44.546Z,3708
2016-09-14T07:40:25.095Z,3728
2016-09-14T07:41:05.652Z,3744
2016-09-14T07:41:46.207Z,3764
2016-09-14T07:42:26.755Z,3780
2016-09-14T07:43:07.306Z,3800
2016-09-14T07:43:47.854Z,3820
2016-09-14T07:44:28.406Z,3836
2016-09-14T07:45:08.965Z,3852
2016-09-14T07:45:49.506Z,3876
2016-09-14T07:46:30.055Z,3900
2016-09-14T07:47:10.608Z,3928
2016-09-14T07:47:51.158Z,3960
2016-09-14T07:48:31.705Z,3988
2016-09-14T07:49:12.256Z,4012
2016-09-14T07:49:52.807Z,4036
2016-09-14T07:50:33.365Z,4060
2016-09-14T07:51:13.912Z,4080
2016-09-14T07:51:54.465Z,4104
2016-09-14T07:52:35.015Z,4124
2016-09-14T07:53:15.565Z,4148
2016-09-14T07:53:56.123Z,4168
2016-09-14T07:54:36.669Z,4192
2016-09-14T07:55:17.232Z,4212
2016-09-14T07:55:57.783Z,4240
2016-09-14T07:56:38.330Z,4264
2016-09-14T07:57:18.882Z,4296
2016-09-14T07:57:59.440Z,4324
2016-09-14T07:58:39.990Z,4344
2016-09-14T07:59:20.541Z,4376
2016-09-14T08:00:01.091Z,4408
2016-09-14T08:00:41.636Z,4444
2016-09-14T08:01:22.190Z,4496
2016-09-14T08:02:02.735Z,4608
2016-09-14T08:02:43.284Z,4740
2016-09-14T08:03:23.847Z,4948
2016-09-14T08:04:04.382Z,9116
2016-09-14T08:04:44.933Z,17472
2016-09-14T08:05:25.484Z,18720
2016-09-14T08:06:06.033Z,11184
2016-09-14T08:06:46.578Z,5516
2016-09-14T08:07:27.128Z,4740
2016-09-14T08:08:07.678Z,4732
2016-09-14T08:08:48.231Z,4736
2016-09-14T08:09:28.787Z,4748
2016-09-14T08:10:09.338Z,4768
2016-09-14T08:10:49.887Z,4800
2016-09-14T08:11:30.440Z,4900
2016-09-14T08:12:10.988Z,4936
2016-09-14T08:12:51.539Z,4912
2016-09-14T08:13:32.089Z,5240
2016-09-14T08:14:12.642Z,7300
2016-09-14T08:14:53.191Z,9660
2016-09-14T08:15:33.742Z,9644
2016-09-14T08:16:14.296Z,6856
2016-09-14T08:16:54.844Z,7656
2016-09-14T08:17:35.397Z,8320
2016-09-14T08:18:15.946Z,6692
2016-09-14T08:18:56.498Z,5428
2016-09-14T08:19:37.042Z,5360
2016-09-14T08:20:17.597Z,5332
2016-09-14T08:20:58.145Z,5488
2016-09-14T08:21:38.696Z,6820
2016-09-14T08:22:19.247Z,6960
2016-09-14T08:22:59.822Z,5872
2016-09-14T08:23:40.367Z,6044
2016-09-14T08:24:20.923Z,7248
2016-09-14T08:25:01.462Z,7820
2016-09-14T08:25:42.032Z,6472
2016-09-14T08:26:22.582Z,5760
2016-09-14T08:27:03.129Z,5760
2016-09-14T08:27:43.669Z,5760
2016-09-14T08:28:24.217Z,5744
2016-09-14T08:29:04.773Z,6192
2016-09-14T08:29:45.315Z,9500
2016-09-14T08:30:25.867Z,12172
2016-09-14T08:31:06.419Z,10224
2016-09-14T08:31:46.970Z,7664
2016-09-14T08:32:27.519Z,6012
2016-09-14T08:33:08.070Z,6032
2016-09-14T08:33:48.620Z,6128
2016-09-14T08:34:29.170Z,6248
2016-09-14T08:35:09.720Z,6340
2016-09-14T08:35:50.268Z,6416
2016-09-14T08:36:30.820Z,6468
2016-09-14T08:37:11.370Z,6492
2016-09-14T08:37:51.927Z,6496
2016-09-14T08:38:32.468Z,6532
2016-09-14T08:39:13.025Z,6604
2016-09-14T08:39:53.577Z,6692
2016-09-14T08:40:34.126Z,6776
2016-09-14T08:41:14.674Z,6848
2016-09-14T08:41:55.228Z,7704
2016-09-14T08:42:35.780Z,16416
2016-09-14T08:43:16.332Z,30944
2016-09-14T08:43:56.887Z,42400
2016-09-14T08:44:37.438Z,35360
2016-09-14T08:45:17.990Z,20960
2016-09-14T08:45:58.550Z,9416
2016-09-14T08:46:39.102Z,7536
2016-09-14T08:47:19.660Z,7468
2016-09-14T08:48:00.210Z,7472
2016-09-14T08:48:40.805Z,7540
2016-09-14T08:49:21.362Z,7644
2016-09-14T08:50:01.916Z,7744
2016-09-14T08:50:42.479Z,7836
2016-09-14T08:51:23.018Z,7952
2016-09-14T08:52:03.568Z,8264
2016-09-14T08:52:44.111Z,14052
2016-09-14T08:53:24.672Z,30016
2016-09-14T08:54:05.225Z,45376
2016-09-14T08:54:45.780Z,51744
2016-09-14T08:55:26.334Z,51072
2016-09-14T08:56:06.890Z,50720
2016-09-14T08:56:47.442Z,51648
2016-09-14T08:57:27.999Z,52000
2016-09-14T08:58:08.554Z,50912
2016-09-14T08:58:49.108Z,50752
2016-09-14T08:59:29.659Z,50784
2016-09-14T09:00:10.209Z,51232
2016-09-14T09:00:50.755Z,51040
2016-09-14T09:01:31.307Z,51552
2016-09-14T09:02:11.861Z,50560
2016-09-14T09:02:52.411Z,50432
2016-09-14T09:03:32.961Z,51648
2016-09-14T09:04:13.516Z,51520
2016-09-14T09:04:54.064Z,49728
2016-09-14T09:05:34.617Z,48960
2016-09-14T09:06:15.179Z,51488
2016-09-14T09:06:55.731Z,53088
2016-09-14T09:07:36.285Z,52864
2016-09-14T09:08:16.835Z,52320
2016-09-14T09:08:57.386Z,53120
2016-09-14T09:09:37.940Z,54048
2016-09-14T09:10:18.497Z,54432
2016-09-14T09:10:59.043Z,53408
2016-09-14T09:11:39.604Z,52736
2016-09-14T09:12:20.157Z,52608
2016-09-14T09:13:00.740Z,53568
2016-09-14T09:13:41.296Z,53824
2016-09-14T09:14:21.852Z,53056
2016-09-14T09:15:02.405Z,52544
2016-09-14T09:15:42.957Z,53056
2016-09-14T09:16:23.512Z,53536
2016-09-14T09:17:04.070Z,51872
2016-09-14T09:17:44.629Z,50720
2016-09-14T09:18:25.185Z,51264
2016-09-14T09:19:05.746Z,51040
2016-09-14T09:19:46.300Z,47776
2016-09-14T09:20:26.849Z,47712
2016-09-14T09:21:07.410Z,49280
2016-09-14T09:21:47.964Z,47712
2016-09-14T09:22:28.526Z,48416
2016-09-14T09:23:09.077Z,50528
2016-09-14T09:23:49.624Z,50816
2016-09-14T09:24:30.185Z,50080
2016-09-14T09:25:10.740Z,51648
2016-09-14T09:25:51.291Z,52224
2016-09-14T09:26:31.844Z,53056
2016-09-14T09:27:12.399Z,54656
2016-09-14T09:27:52.950Z,55648
2016-09-14T09:28:33.508Z,54912
2016-09-14T09:29:14.066Z,55712
2016-09-14T09:29:54.622Z,56544
2016-09-14T09:30:35.176Z,56352
2016-09-14T09:31:15.727Z,54784
2016-09-14T09:31:56.303Z,55488